El Cajon (6925) Station Data

Red Flag Warning: No
Fire Weather Zone: 250
SDGE Region: Eastern
Lat/Lon: 32.795/-116.973

Observations

Time Wind Speed/Gust Temp(F) RH Fuel Moist Fuel Temp(F) Dewpt(F) Tmax(F) Tmin(F) Accum Precip 10-min Precip SL Press(mb)
6/27 5:00pm 271 5 G 12 88° 27% - - 50° 93.9° 65.5° - - -
6/27 4:50pm 248 5 G 11 88° 28% - - 51° 93.9° 65.5° - - -
6/27 4:40pm 261 5 G 11 89° 29% - - 52° 93.9° 65.5° - - -
6/27 4:30pm 256 5 G 9 88° 31% - - 54° 93.9° 65.5° - - -
6/27 4:20pm 257 6 G 10 88° 32% - - 54° 93.9° 65.5° - - -
6/27 4:10pm 260 7 G 12 88° 33% - - 56° 93.9° 65.5° - - -
6/27 4:00pm 264 6 G 11 89° 34% - - 57° 93.9° 65.5° - - -
6/27 3:50pm 242 7 G 12 88° 36% - - 58° 93.9° 65.5° - - -
6/27 3:40pm 235 6 G 10 88° 39% - - 59° 93.9° 65.5° - - -
6/27 3:30pm 242 6 G 11 88° 39% - - 60° 93.9° 65.5° - - -
6/27 3:20pm 238 6 G 13 88° 40% - - 60° 93.9° 65.5° - - -
6/27 3:10pm 233 9 G 16 87° 40% - - 60° 93.9° 65.5° - - -
6/27 3:00pm 231 10 G 19 88° 39% - - 60° 93.9° 65.5° - - -
6/27 2:50pm 222 11 G 21 88° 37% - - 59° 93.9° 65.5° - - -
6/27 2:40pm 237 11 G 17 89° 35% - - 57° 93.9° 65.5° - - -
6/27 2:30pm 235 11 G 17 89° 35% - - 58° 93.9° 65.5° - - -
6/27 2:20pm 220 9 G 17 89° 34% - - 57° 93.9° 65.5° - - -
6/27 2:10pm 226 10 G 17 89° 35% - - 58° 93.9° 65.5° - - -
6/27 2:00pm 230 9 G 17 89° 34% - - 57° 93.9° 65.5° - - -
6/27 1:50pm 233 10 G 17 89° 36% - - 58° 93.9° 65.5° - - -
6/27 1:40pm 231 10 G 16 89° 34% - - 57° 93.9° 65.5° - - -
6/27 1:30pm 235 11 G 18 89° 34% - - 57° 93.9° 65.5° - - -
6/27 1:20pm 235 10 G 18 89° 36% - - 59° 93.9° 65.5° - - -
6/27 1:10pm 241 10 G 16 89° 37% - - 60° 93.9° 65.5° - - -
6/27 1:00pm 237 11 G 19 89° 35% - - 58° 93.9° 65.5° - - -
6/27 12:50pm 238 10 G 15 91° 33% - - 58° 93.9° 65.5° - - -
6/27 12:40pm 233 9 G 15 91° 32% - - 57° 93.9° 65.5° - - -
6/27 12:30pm 228 9 G 14 92° 29% - - 56° 93.9° 65.5° - - -
6/27 12:20pm 246 8 G 14 93° 27% - - 53° 93.9° 65.5° - - -
6/27 12:10pm 260 7 G 12 92° 25% - - 52° 93.9° 65.5° - - -
6/27 12:00pm 241 7 G 11 92° 25% - - 52° 93.9° 65.5° - - -
6/27 11:50am 247 7 G 12 92° 27% - - 54° 93.9° 65.5° - - -
6/27 11:40am 248 5 G 10 93° 25% - - 51° 93.9° 65.5° - - -
6/27 11:30am 258 6 G 11 92° 26% - - 52° 92.8° 65.5° - - -
6/27 11:20am 252 5 G 10 92° 26% - - 52° 92.6° 65.5° - - -
6/27 11:10am 242 5 G 9 91° 26% - - 52° 91.9° 65.5° - - -
6/27 11:00am 237 5 G 9 91° 27% - - 52° 91.7° 65.5° - - -
6/27 10:50am 235 5 G 10 90° 27% - - 51° 91.3° 65.5° - - -
6/27 10:40am 246 5 G 9 89° 27% - - 51° 90.5° 65.5° - - -
6/27 10:30am 254 5 G 9 88° 28% - - 51° 89.1° 65.5° - - -
6/27 10:20am 261 5 G 8 87° 31% - - 53° 88.9° 65.5° - - -
6/27 10:10am 241 5 G 9 87° 33% - - 54° 88.9° 65.5° - - -
6/27 10:00am 231 6 G 10 87° 33% - - 54° 88.9° 65.5° - - -
6/27 9:50am 231 6 G 11 87° 29% - - 51° 88.9° 65.5° - - -
6/27 9:40am 234 6 G 11 88° 26% - - 48° 88.9° 65.5° - - -
6/27 9:30am 223 3 G 8 88° 20% - - 42° 88.9° 65.5° - - -
6/27 9:20am 100 1 G 3 86° 21% - - 41° 87.5° 65.5° - - -
6/27 9:10am 134 1 G 4 84° 23% - - 42° 85.7° 65.5° - - -
6/27 8:50am 7 1 G 4 82° 24% - - 41° 83.2° 65.5° - - -
6/27 8:40am 359 1 G 2 80° 25% - - 42° 81.1° 65.5° - - -
6/27 8:30am 357 2 G 3 79° 28% - - 43° 79.8° 65.5° - - -
6/27 8:20am 337 2 G 3 79° 30% - - 44° 79.3° 65.5° - - -
6/27 8:10am 298 1 G 2 78° 32% - - 46° 79.1° 65.5° - - -
6/27 8:00am 275 1 G 2 75° 35% - - 46° 76.8° 65.5° - - -
6/27 7:40am 177 1 G 2 73° 39% - - 47° 76.8° 65.5° - - -
6/27 7:30am 148 0 G 2 72° 40% - - 47° 76.8° 65.5° - - -
6/27 7:20am 28 1 G 2 70° 43% - - 47° 76.8° 65.5° - - -
6/27 7:10am 13 2 G 3 69° 45% - - 47° 76.8° 65.5° - - -
6/27 7:00am 22 1 G 2 69° 46% - - 47° 76.8° 65.5° - - -
6/27 6:50am 33 1 G 2 68° 47% - - 47° 76.8° 65.5° - - -
6/27 6:40am 118 0 G 2 68° 48% - - 47° 76.8° 65.5° - - -
6/27 6:30am 351 1 G 4 67° 49% - - 47° 76.8° 65.5° - - -
6/27 6:20am 349 0 G 3 66° 50% - - 47° 76.8° 65.5° - - -
6/27 6:10am 182 1 G 2 66° 50% - - 47° 76.8° 65.5° - - -
6/27 6:00am 163 0 G 1 67° 49% - - 47° 76.8° 66° - - -
6/27 5:50am 0 0 G 0 66° 50% - - 47° 76.8° 66° - - -
6/27 5:40am 221 0 G 2 66° 50% - - 47° 76.8° 66° - - -
6/27 5:30am 198 1 G 2 67° 49% - - 47° 76.8° 66° - - -
6/27 5:20am 211 1 G 2 67° 50% - - 48° 76.8° 66.4° - - -
6/27 5:10am 181 1 G 1 67° 50% - - 48° 76.8° 66.4° - - -
6/27 5:00am 166 0 G 1 67° 51% - - 48° 76.8° 66.4° - - -
6/27 4:50am 167 1 G 2 67° 52% - - 49° 76.8° 66.7° - - -
6/27 4:40am 159 1 G 2 68° 53% - - 50° 76.8° 67.5° - - -
6/27 4:30am 148 0 G 2 68° 51% - - 50° 76.8° 68° - - -
6/27 4:20am 213 0 G 2 69° 50% - - 49° 76.8° 68.3° - - -
6/27 4:10am 266 0 G 1 69° 50% - - 49° 76.8° 68.5° - - -
6/27 4:00am 342 0 G 1 70° 48% - - 49° 76.8° 69° - - -
6/27 3:50am 355 0 G 1 70° 47% - - 49° 76.8° 69.7° - - -
6/27 3:40am 337 1 G 2 70° 47% - - 49° 76.8° 69.7° - - -
6/27 3:30am 337 1 G 2 71° 46% - - 49° 76.8° 70.1° - - -
6/27 3:20am 333 1 G 2 71° 48% - - 50° 76.8° 70.1° - - -
6/27 3:10am 191 1 G 1 70° 53% - - 53° 76.8° 70.1° - - -
6/27 3:00am 178 1 G 1 71° 52% - - 52° 76.8° 70.3° - - -
6/27 2:50am 212 1 G 1 71° 47% - - 50° 76.8° 70.9° - - -
6/27 2:40am 262 1 G 1 72° 47% - - 50° 76.8° 71.1° - - -
6/27 2:30am 252 0 G 3 72° 50% - - 53° 76.8° 71.3° - - -
6/27 2:20am 336 0 G 2 73° 47% - - 51° 76.8° 72.2° - - -
6/27 2:10am 227 1 G 2 73° 47% - - 52° 76.8° 72.3° - - -
6/27 2:00am 312 0 G 1 73° 47% - - 52° 76.8° 72.3° - - -
6/27 1:50am 0 0 G 0 73° 49% - - 53° 76.8° 72.4° - - -
6/27 1:40am 222 0 G 2 74° 45% - - 51° 76.8° 73.4° - - -
6/27 1:30am 353 2 G 3 75° 43% - - 51° 76.8° 73.8° - - -
6/27 1:20am 28 1 G 3 74° 48% - - 53° 76.8° 73.8° - - -
6/27 1:10am 208 0 G 1 75° 51% - - 55° 76.8° 74° - - -
6/27 1:00am 177 1 G 2 75° 49% - - 55° 76.8° 74.6° - - -
6/27 12:50am 207 0 G 1 76° 49% - - 55° 76.8° 74.6° - - -
6/27 12:40am 335 1 G 2 75° 52% - - 56° 76.8° 74.6° - - -
6/27 12:30am 308 1 G 2 75° 53% - - 57° 76.8° 74.6° - - -
6/27 12:20am 241 1 G 2 75° 52% - - 56° 76.8° 74.6° - - -
6/27 12:10am 167 1 G 3 76° 54% - - 58° 76.8° 75° - - -
6/27 12:00am 129 2 G 3 77° 53% - - 59° 99° 68.3° - - -
6/26 11:50pm 161 0 G 1 77° 48% - - 56° 99° 68.3° - - -
6/26 11:40pm 233 0 G 1 77° 48% - - 56° 99° 68.3° - - -
6/26 11:30pm 210 2 G 3 77° 50% - - 57° 99° 68.3° - - -
6/26 11:20pm 191 2 G 3 78° 49% - - 57° 99° 68.3° - - -
6/26 11:10pm 187 1 G 2 78° 44% - - 55° 99° 68.3° - - -
6/26 11:00pm 190 1 G 1 78° 50% - - 58° 99° 68.3° - - -
6/26 10:50pm 178 1 G 2 79° 50% - - 59° 99° 68.3° - - -
6/26 10:40pm 202 1 G 2 80° 45% - - 57° 99° 68.3° - - -
6/26 10:30pm 196 1 G 1 80° 43% - - 56° 99° 68.3° - - -
6/26 10:20pm 260 1 G 2 81° 40% - - 54° 99° 68.3° - - -
6/26 10:10pm 273 1 G 2 81° 40% - - 55° 99° 68.3° - - -
6/26 10:00pm 265 1 G 2 81° 41% - - 55° 99° 68.3° - - -
6/26 9:50pm 288 1 G 2 81° 41% - - 55° 99° 68.3° - - -
6/26 9:40pm 272 1 G 3 81° 44% - - 57° 99° 68.3° - - -
6/26 9:30pm 180 1 G 3 81° 47% - - 59° 99° 68.3° - - -
6/26 9:20pm 175 2 G 3 82° 47% - - 60° 99° 68.3° - - -
6/26 9:10pm 160 2 G 3 82° 47% - - 60° 99° 68.3° - - -
6/26 9:00pm 171 1 G 3 83° 44% - - 59° 99° 68.3° - - -
6/26 8:50pm 165 1 G 3 83° 40% - - 56° 99° 68.3° - - -
6/26 8:40pm 220 1 G 3 83° 37% - - 55° 99° 68.3° - - -
6/26 8:30pm 260 5 G 8 84° 35% - - 53° 99° 68.3° - - -
6/26 8:20pm 243 4 G 8 85° 33% - - 53° 99° 68.3° - - -
6/26 8:10pm 240 4 G 6 85° 33% - - 53° 99° 68.3° - - -
6/26 8:00pm 259 4 G 6 86° 33% - - 53° 99° 68.3° - - -
6/26 7:50pm 266 5 G 8 86° 32% - - 53° 99° 68.3° - - -
6/26 7:40pm 256 5 G 9 87° 31% - - 53° 99° 68.3° - - -
6/26 7:30pm 221 3 G 7 88° 30% - - 52° 99° 68.3° - - -
6/26 7:20pm 192 3 G 6 89° 28% - - 52° 99° 68.3° - - -
6/26 7:10pm 217 3 G 6 90° 27% - - 51° 99° 68.3° - - -
6/26 7:00pm 237 4 G 7 91° 25% - - 50° 99° 68.3° - - -
6/26 6:50pm 232 4 G 7 92° 24% - - 49° 99° 68.3° - - -
6/26 6:40pm 251 4 G 8 92° 25% - - 51° 99° 68.3° - - -
6/26 6:30pm 250 4 G 8 92° 25% - - 51° 99° 68.3° - - -
6/26 6:20pm 258 5 G 9 93° 21% - - 47° 99° 68.3° - - -
6/26 6:10pm 264 6 G 10 94° 19% - - 46° 99° 68.3° - - -
6/26 6:00pm 277 5 G 9 94° 21% - - 48° 99° 68.3° - - -
6/26 5:50pm 278 5 G 10 95° 22% - - 50° 99° 68.3° - - -
6/26 5:40pm 283 4 G 9 95° 21% - - 49° 99° 68.3° - - -
6/26 5:30pm 273 5 G 11 96° 21% - - 49° 99° 68.3° - - -
6/26 5:20pm 275 5 G 12 95° 22% - - 51° 99° 68.3° - - -
6/26 5:10pm 270 6 G 12 95° 24% - - 52° 99° 68.3° - - -
6/26 5:00pm 269 5 G 14 97° 23% - - 53° 99° 68.3° - - -
6/26 4:50pm 272 6 G 13 97° 23% - - 53° 99° 68.3° - - -
6/26 4:40pm 285 6 G 11 97° 24% - - 54° 99° 68.3° - - -
6/26 4:30pm 282 6 G 11 97° 25% - - 56° 99° 68.3° - - -
6/26 4:20pm 261 7 G 12 96° 28% - - 57° 99° 68.3° - - -
6/26 4:10pm 251 8 G 14 96° 29% - - 59° 99° 68.3° - - -
6/26 4:00pm 269 6 G 12 97° 28% - - 59° 99° 68.3° - - -
6/26 3:50pm 268 6 G 14 97° 29% - - 59° 99° 68.3° - - -
6/26 3:40pm 274 5 G 9 97° 29% - - 59° 99° 68.3° - - -
6/26 3:30pm 267 6 G 11 98° 29% - - 60° 99° 68.3° - - -
6/26 3:20pm 255 7 G 13 97° 29% - - 60° 98.4° 68.3° - - -
6/26 3:10pm 231 8 G 13 97° 28% - - 58° 98.4° 68.3° - - -
6/26 3:00pm 232 6 G 13 97° 26% - - 57° 98.4° 68.3° - - -
6/26 2:50pm 230 6 G 13 97° 25% - - 56° 98.2° 68.3° - - -
6/26 2:40pm 245 7 G 11 97° 25% - - 56° 98.1° 68.3° - - -
6/26 2:30pm 242 6 G 12 97° 26% - - 56° 98.1° 68.3° - - -
6/26 2:20pm 235 7 G 12 96° 28% - - 58° 97.6° 68.3° - - -
6/26 2:10pm 228 7 G 12 95° 30% - - 59° 96.4° 68.3° - - -
6/26 2:00pm 223 7 G 11 94° 31% - - 59° 94.5° 68.3° - - -
6/26 1:50pm 225 7 G 12 92° 32% - - 59° 93.5° 68.3° - - -
6/26 1:40pm 241 7 G 11 93° 29% - - 56° 93.3° 68.3° - - -
6/26 1:30pm 252 7 G 11 92° 31% - - 57° 93.3° 68.3° - - -
6/26 1:20pm 249 7 G 11 92° 32% - - 58° 92.6° 68.3° - - -
6/26 1:10pm 258 6 G 12 91° 33% - - 58° 92° 68.3° - - -
6/26 1:00pm 261 7 G 12 90° 34% - - 59° 91.5° 68.3° - - -
6/26 12:50pm 262 6 G 12 90° 36% - - 60° 91° 68.3° - - -
6/26 12:40pm 245 8 G 12 90° 37% - - 60° 90.8° 68.3° - - -
6/26 12:30pm 258 6 G 10 90° 38% - - 60° 90.8° 68.3° - - -
6/26 12:20pm 240 6 G 13 89° 39% - - 61° 89.9° 68.3° - - -
6/26 12:10pm 239 6 G 12 88° 40% - - 60° 88.8° 68.3° - - -
6/26 12:00pm 240 5 G 12 88° 40% - - 61° 88.8° 68.3° - - -
6/26 11:50am 245 7 G 11 86° 43% - - 61° 87.6° 68.3° - - -
6/26 11:40am 242 8 G 13 86° 44% - - 61° 87.6° 68.3° - - -
6/26 11:30am 226 6 G 13 86° 44% - - 61° 87.6° 68.3° - - -
6/26 11:20am 246 7 G 13 85° 45% - - 61° 87.6° 68.3° - - -
6/26 11:10am 248 7 G 12 86° 45% - - 62° 87.6° 68.3° - - -
6/26 11:00am 237 8 G 14 85° 46% - - 61° 87.6° 68.3° - - -
6/26 10:50am 224 7 G 11 85° 45% - - 62° 87.6° 68.3° - - -
6/26 10:40am 241 6 G 11 86° 45% - - 62° 87.6° 68.3° - - -
6/26 10:30am 253 6 G 10 85° 47% - - 63° 87.6° 68.3° - - -
6/26 10:20am 241 6 G 10 85° 47% - - 63° 87.6° 68.3° - - -
6/26 10:10am 237 6 G 11 85° 47% - - 62° 87.6° 68.3° - - -
6/26 10:00am 233 7 G 11 85° 46% - - 62° 87.6° 68.3° - - -
6/26 9:50am 217 7 G 11 85° 43% - - 60° 87.6° 68.3° - - -
6/26 9:40am 240 8 G 12 86° 41% - - 60° 87.6° 68.3° - - -
6/26 9:30am 229 5 G 10 87° 38% - - 58° 87.6° 68.3° - - -
6/26 9:20am 234 6 G 11 86° 38% - - 58° 87.3° 68.3° - - -
6/26 9:10am 228 4 G 10 86° 34% - - 55° 87.1° 68.3° - - -
6/26 9:00am 172 0 G 2 86° 37% - - 56° 86.5° 68.3° - - -
6/26 8:50am 88 1 G 3 84° 37% - - 56° 85.6° 68.3° - - -
6/26 8:40am 109 1 G 3 83° 38% - - 55° 83.6° 68.3° - - -
6/26 8:30am 66 2 G 3 82° 39% - - 55° 82.6° 68.3° - - -
6/26 8:20am 116 1 G 3 80° 44% - - 57° 81.2° 68.3° - - -
6/26 8:10am 13 1 G 2 80° 47% - - 58° 80.9° 68.3° - - -
6/26 8:00am 117 0 G 1 79° 50% - - 59° 80.2° 68.3° - - -
6/26 7:50am 50 1 G 3 76° 55% - - 59° 77.9° 68.3° - - -
6/26 7:40am 7 0 G 2 75° 57% - - 59° 75.7° 68.3° - - -
6/26 7:30am 11 0 G 1 74° 61% - - 59° 75.3° 68.3° - - -
6/26 7:20am 5 0 G 2 72° 64% - - 60° 75.3° 68.3° - - -
6/26 7:10am 281 0 G 1 71° 66% - - 59° 75.3° 68.3° - - -
6/26 7:00am 79 1 G 3 71° 67% - - 59° 75.3° 68.3° - - -
6/26 6:50am 28 2 G 2 70° 67% - - 59° 75.3° 68.3° - - -
6/26 6:40am 38 1 G 2 70° 68% - - 59° 75.3° 68.3° - - -
6/26 6:30am 25 1 G 2 70° 69% - - 59° 75.3° 68.3° - - -
6/26 6:20am 353 1 G 3 69° 70% - - 59° 75.3° 68.3° - - -
6/26 6:10am 328 1 G 1 69° 71% - - 59° 75.3° 68.3° - - -
6/26 6:00am 183 1 G 1 69° 72% - - 59° 75.3° 68.3° - - -